createdAt,value
2019-03-22T00:01:40.337Z,10.75
2019-03-22T00:04:11.278Z,7.95
2019-03-22T00:06:42.226Z,12.98
2019-03-22T00:09:13.142Z,9.25
2019-03-22T00:11:44.102Z,7.85
2019-03-22T00:14:15.006Z,15.50
2019-03-22T00:16:45.937Z,7.55
2019-03-22T00:19:16.858Z,9.65
2019-03-22T00:21:47.775Z,10.98
2019-03-22T00:24:18.681Z,8.85
2019-03-22T00:26:49.606Z,15.30
2019-03-22T00:29:20.547Z,13.10
2019-03-22T00:31:51.462Z,12.23
2019-03-22T00:34:22.393Z,39.73
2019-03-22T00:36:53.318Z,16.05
2019-03-22T00:39:24.292Z,16.48
2019-03-22T00:41:55.213Z,16.93
2019-03-22T00:44:26.170Z,19.75
2019-03-22T00:46:57.173Z,19.87
2019-03-22T00:49:28.127Z,19.20
2019-03-22T00:51:59.084Z,17.57
2019-03-22T00:54:30.040Z,16.25
2019-03-22T00:57:01.024Z,15.88
2019-03-22T00:59:31.954Z,13.65
2019-03-22T01:02:02.879Z,16.05
2019-03-22T01:04:33.812Z,18.32
2019-03-22T01:07:04.758Z,12.37
2019-03-22T01:09:35.682Z,9.25
2019-03-22T01:12:06.611Z,11.25
2019-03-22T01:14:37.632Z,12.65
2019-03-22T01:17:08.544Z,10.78
2019-03-22T01:19:39.477Z,9.93
2019-03-22T01:22:10.388Z,9.63
2019-03-22T01:24:41.319Z,9.18
2019-03-22T01:27:12.238Z,10.13
2019-03-22T01:29:43.312Z,6.95
2019-03-22T01:32:14.209Z,8.23
2019-03-22T01:34:45.165Z,9.35
2019-03-22T01:37:16.094Z,12.28
2019-03-22T01:39:47.074Z,9.70
2019-03-22T01:42:18.015Z,7.62
2019-03-22T01:44:48.965Z,7.53
2019-03-22T01:47:19.906Z,12.73
2019-03-22T01:49:50.871Z,8.68
2019-03-22T01:52:21.777Z,10.70
2019-03-22T01:54:52.722Z,7.00
2019-03-22T01:57:23.673Z,11.88
2019-03-22T01:59:54.617Z,8.93
2019-03-22T02:02:25.523Z,6.05
2019-03-22T02:04:56.437Z,7.85
2019-03-22T02:07:27.371Z,6.37
2019-03-22T02:09:58.274Z,9.65
2019-03-22T02:12:29.226Z,8.10
2019-03-22T02:15:00.344Z,6.33
2019-03-22T02:17:31.462Z,6.70
2019-03-22T02:20:02.387Z,9.38
2019-03-22T02:22:33.323Z,6.97
2019-03-22T02:25:04.540Z,5.60
2019-03-22T02:27:35.503Z,7.95
2019-03-22T02:30:07.911Z,10.58
2019-03-22T02:32:38.873Z,7.53
2019-03-22T02:35:10.155Z,8.65
2019-03-22T02:37:41.091Z,9.88
2019-03-22T02:40:12.460Z,10.82
2019-03-22T02:42:43.484Z,12.47
2019-03-22T02:45:14.696Z,9.70
2019-03-22T02:47:45.699Z,10.32
2019-03-22T02:50:19.419Z,7.15
2019-03-22T02:52:49.241Z,6.60
2019-03-22T02:55:20.180Z,9.00
2019-03-22T02:57:51.110Z,8.78
2019-03-22T03:00:22.035Z,12.68
2019-03-22T03:02:52.958Z,7.53
2019-03-22T03:05:23.872Z,8.58
2019-03-22T03:07:54.809Z,10.35
2019-03-22T03:10:25.716Z,5.72
2019-03-22T03:12:56.661Z,9.13
2019-03-22T03:15:27.579Z,6.85
2019-03-22T03:17:58.515Z,9.15
2019-03-22T03:20:29.475Z,8.38
2019-03-22T03:23:00.460Z,6.72
2019-03-22T03:25:31.400Z,13.43
2019-03-22T03:28:02.343Z,9.53
2019-03-22T03:30:33.232Z,9.13
2019-03-22T03:33:04.167Z,9.45
2019-03-22T03:35:35.188Z,6.67
2019-03-22T03:38:06.167Z,6.15
2019-03-22T03:40:37.102Z,8.00
2019-03-22T03:43:08.021Z,10.10
2019-03-22T03:45:39.129Z,9.58
2019-03-22T03:48:10.506Z,8.45
2019-03-22T03:50:41.538Z,7.55
2019-03-22T03:53:12.496Z,9.35
2019-03-22T03:55:43.493Z,6.62
2019-03-22T03:58:14.449Z,10.95
2019-03-22T04:00:45.496Z,11.50
2019-03-22T04:03:16.451Z,12.55
2019-03-22T04:05:47.382Z,10.15
2019-03-22T04:08:18.312Z,10.40
2019-03-22T04:10:49.266Z,7.75
2019-03-22T04:13:20.169Z,6.70
2019-03-22T04:15:51.150Z,8.15
2019-03-22T04:18:22.053Z,9.68
2019-03-22T04:20:53.026Z,6.87
2019-03-22T04:23:23.925Z,6.72
2019-03-22T04:25:54.873Z,6.65
2019-03-22T04:28:25.786Z,7.12
2019-03-22T04:30:56.823Z,6.75
2019-03-22T04:33:27.752Z,7.28
2019-03-22T04:35:58.747Z,10.58
2019-03-22T04:38:29.834Z,6.12
2019-03-22T04:41:00.783Z,6.47
2019-03-22T04:43:31.714Z,8.38
2019-03-22T04:46:02.658Z,6.78
2019-03-22T04:48:36.955Z,11.18
2019-03-22T04:51:08.999Z,6.22
2019-03-22T04:53:48.385Z,6.92
2019-03-22T04:56:21.899Z,7.92
2019-03-22T04:58:53.689Z,7.45
2019-03-22T05:01:26.859Z,12.40
2019-03-22T05:03:59.240Z,8.35
2019-03-22T05:06:32.175Z,6.95
2019-03-22T05:09:03.784Z,8.08
2019-03-22T05:11:34.921Z,11.53
2019-03-22T05:14:07.275Z,7.37
2019-03-22T05:16:41.281Z,11.20
2019-03-22T05:19:14.196Z,11.65
2019-03-22T05:21:47.161Z,11.53
2019-03-22T05:24:19.482Z,9.58
2019-03-22T05:26:51.653Z,13.93
2019-03-22T05:29:30.444Z,9.60
2019-03-22T05:32:11.872Z,8.13
2019-03-22T05:34:42.750Z,10.08
2019-03-22T05:37:13.678Z,9.80
2019-03-22T05:39:44.691Z,7.78
2019-03-22T05:42:15.574Z,15.80
2019-03-22T05:44:46.518Z,10.53
2019-03-22T05:47:17.455Z,8.35
2019-03-22T05:49:48.363Z,8.48
2019-03-22T05:52:19.447Z,8.90
2019-03-22T05:54:50.407Z,7.90
2019-03-22T05:57:21.330Z,8.08
2019-03-22T05:59:52.515Z,10.53
2019-03-22T06:02:23.465Z,14.18
2019-03-22T06:04:54.379Z,9.75
2019-03-22T06:07:25.275Z,11.48
2019-03-22T06:09:56.186Z,9.10
2019-03-22T06:12:27.085Z,9.90
2019-03-22T06:14:57.989Z,11.12
2019-03-22T06:17:28.898Z,8.68
2019-03-22T06:19:59.868Z,10.43
2019-03-22T06:22:30.812Z,8.73
2019-03-22T06:25:01.705Z,8.40
2019-03-22T06:27:32.605Z,12.20
2019-03-22T06:30:03.520Z,12.55
2019-03-22T06:32:34.404Z,11.00
2019-03-22T06:35:05.895Z,14.18
2019-03-22T06:37:36.813Z,13.70
2019-03-22T06:40:08.072Z,19.12
2019-03-22T06:42:38.970Z,13.60
2019-03-22T06:45:09.896Z,13.45
2019-03-22T06:47:40.825Z,10.00
2019-03-22T06:50:11.734Z,9.23
2019-03-22T06:52:42.652Z,11.95
2019-03-22T06:55:13.641Z,11.68
2019-03-22T06:57:44.627Z,17.25
2019-03-22T07:00:15.577Z,15.43
2019-03-22T07:02:46.479Z,12.88
2019-03-22T07:05:17.625Z,10.30
2019-03-22T07:07:50.691Z,9.53
2019-03-22T07:10:27.441Z,8.50
2019-03-22T07:12:58.689Z,7.28
2019-03-22T07:15:31.633Z,9.75
2019-03-22T07:18:03.625Z,8.20
2019-03-22T07:20:34.605Z,9.05
2019-03-22T07:23:07.497Z,7.30
2019-03-22T07:25:38.473Z,10.40
2019-03-22T07:28:09.485Z,13.08
2019-03-22T07:30:40.451Z,8.13
2019-03-22T07:33:11.442Z,12.63
2019-03-22T07:35:42.502Z,9.38
2019-03-22T07:38:13.537Z,10.90
2019-03-22T07:40:44.558Z,8.58
2019-03-22T07:43:15.484Z,7.72
2019-03-22T07:45:46.423Z,10.28
2019-03-22T07:48:17.365Z,11.35
2019-03-22T07:50:48.383Z,11.90
2019-03-22T07:53:19.485Z,9.63
2019-03-22T07:55:50.402Z,11.93
2019-03-22T07:58:21.325Z,12.50
2019-03-22T08:00:52.263Z,8.53
2019-03-22T08:03:23.312Z,11.20
2019-03-22T08:05:54.236Z,8.00
2019-03-22T08:08:25.387Z,10.70
2019-03-22T08:10:56.376Z,11.47
2019-03-22T08:13:27.427Z,11.60
2019-03-22T08:15:58.437Z,8.97
2019-03-22T08:18:29.481Z,9.40
2019-03-22T08:21:00.715Z,10.40
2019-03-22T08:23:31.666Z,9.23
2019-03-22T08:26:02.621Z,10.50
2019-03-22T08:28:33.636Z,8.33
2019-03-22T08:31:05.722Z,7.27
2019-03-22T08:33:36.742Z,10.23
2019-03-22T08:36:07.652Z,10.07
2019-03-22T08:38:38.696Z,10.13
2019-03-22T08:41:09.714Z,9.97
2019-03-22T08:43:40.730Z,7.70
2019-03-22T08:46:11.750Z,8.70
2019-03-22T08:48:42.812Z,9.70
2019-03-22T08:51:13.829Z,9.70
2019-03-22T08:53:54.616Z,10.20
2019-03-22T08:56:17.436Z,12.10
2019-03-22T08:58:48.419Z,9.97
2019-03-22T09:01:19.459Z,10.17
2019-03-22T09:03:50.406Z,8.70
2019-03-22T09:06:21.314Z,10.57
2019-03-22T09:08:52.385Z,9.43
2019-03-22T09:11:23.412Z,11.30
2019-03-22T09:13:54.375Z,9.70
2019-03-22T09:16:25.475Z,11.57
2019-03-22T09:18:56.446Z,15.00
2019-03-22T09:21:27.557Z,10.47
2019-03-22T09:23:58.569Z,11.30
2019-03-22T09:26:29.578Z,12.00
2019-03-22T09:29:00.516Z,12.67
2019-03-22T09:31:31.599Z,11.23
2019-03-22T09:34:02.573Z,11.40
2019-03-22T09:36:33.661Z,10.77
2019-03-22T09:39:07.473Z,10.33
2019-03-22T09:41:38.505Z,11.50
2019-03-22T09:44:09.449Z,11.03
2019-03-22T09:46:40.387Z,8.90
2019-03-22T09:49:11.320Z,11.40
2019-03-22T09:51:42.321Z,12.00
2019-03-22T09:54:13.278Z,11.20
2019-03-22T09:56:47.335Z,12.57
2019-03-22T09:59:17.880Z,9.77
2019-03-22T10:01:48.883Z,12.37
2019-03-22T10:04:19.805Z,8.73
2019-03-22T10:06:50.747Z,12.40
2019-03-22T10:09:21.792Z,9.23
2019-03-22T10:11:52.761Z,9.33
2019-03-22T10:14:23.838Z,11.77
2019-03-22T10:16:54.885Z,10.87
2019-03-22T10:19:25.927Z,11.07
2019-03-22T10:21:56.945Z,9.20
2019-03-22T10:24:27.875Z,10.83
2019-03-22T10:26:59.067Z,10.80
2019-03-22T10:29:30.032Z,10.97
2019-03-22T10:32:03.528Z,9.70
2019-03-22T10:34:34.557Z,13.37
2019-03-22T10:37:05.791Z,13.70
2019-03-22T10:39:36.867Z,11.10
2019-03-22T10:42:07.958Z,9.17
2019-03-22T10:44:39.506Z,13.17
2019-03-22T10:47:10.547Z,10.10
2019-03-22T10:49:42.059Z,13.27
2019-03-22T10:52:13.474Z,9.80
2019-03-22T10:54:44.478Z,12.27
2019-03-22T10:57:15.508Z,14.80
2019-03-22T10:59:46.441Z,10.60
2019-03-22T11:04:54.484Z,11.17
2019-03-22T11:07:25.387Z,14.50
2019-03-22T11:09:56.343Z,14.20
2019-03-22T11:12:27.254Z,11.10
2019-03-22T11:14:58.193Z,10.43
2019-03-22T11:17:31.157Z,11.77
2019-03-22T11:20:02.096Z,13.93
2019-03-22T11:22:38.898Z,14.03
2019-03-22T11:25:19.951Z,11.83
2019-03-22T11:27:50.892Z,10.80
2019-03-22T11:30:21.926Z,15.00
2019-03-22T11:32:56.561Z,15.50
2019-03-22T11:35:27.622Z,11.50
2019-03-22T11:38:03.873Z,14.60
2019-03-22T11:40:34.950Z,12.60
2019-03-22T11:43:08.912Z,16.53
2019-03-22T11:45:38.772Z,14.23
2019-03-22T11:48:09.761Z,13.20
2019-03-22T11:50:40.839Z,16.00
2019-03-22T11:53:11.763Z,13.30
2019-03-22T11:55:50.570Z,18.93
2019-03-22T11:58:22.548Z,13.13
2019-03-22T12:00:53.575Z,14.87
2019-03-22T12:03:24.531Z,12.20
2019-03-22T12:05:55.468Z,12.50
2019-03-22T12:08:28.449Z,13.57
2019-03-22T12:10:59.499Z,13.13
2019-03-22T12:13:34.753Z,15.10
2019-03-22T12:16:06.906Z,13.17
2019-03-22T12:18:42.473Z,11.83
2019-03-22T12:21:13.503Z,13.47
2019-03-22T12:23:47.624Z,14.53
2019-03-22T12:26:18.685Z,15.93
2019-03-22T12:28:49.761Z,15.43
2019-03-22T12:31:26.741Z,12.00
2019-03-22T12:33:57.725Z,12.40
2019-03-22T12:36:28.790Z,14.90
2019-03-22T12:39:00.739Z,16.60
2019-03-22T12:41:31.811Z,13.47
2019-03-22T12:44:02.846Z,12.03
2019-03-22T12:46:41.633Z,14.40
2019-03-22T12:49:17.915Z,13.03
2019-03-22T12:51:48.971Z,17.30
2019-03-22T12:54:20.014Z,13.43
2019-03-22T12:56:51.037Z,12.30
2019-03-22T12:59:22.146Z,17.13
2019-03-22T13:01:55.171Z,11.47
2019-03-22T13:04:26.115Z,14.30
2019-03-22T13:06:58.105Z,14.60
2019-03-22T13:09:29.116Z,13.10
2019-03-22T13:12:00.290Z,11.70
2019-03-22T13:14:31.243Z,11.33
2019-03-22T13:17:11.593Z,11.23
2019-03-22T13:19:42.581Z,12.50
2019-03-22T13:22:13.633Z,13.30
2019-03-22T13:24:45.633Z,11.10
2019-03-22T13:27:16.554Z,10.57
2019-03-22T13:29:47.658Z,13.50
2019-03-22T13:32:30.090Z,10.20
2019-03-22T13:35:01.123Z,10.13
2019-03-22T13:37:32.178Z,12.57
2019-03-22T13:40:03.172Z,10.60
2019-03-22T13:42:34.149Z,11.70
2019-03-22T13:45:10.133Z,12.23
2019-03-22T13:47:41.158Z,15.13
2019-03-22T13:50:13.293Z,13.90
2019-03-22T13:52:44.529Z,12.30
2019-03-22T13:55:15.586Z,11.60
2019-03-22T13:57:46.520Z,13.27
2019-03-22T14:00:17.715Z,13.40
2019-03-22T14:02:48.811Z,11.97
2019-03-22T14:05:19.761Z,12.50
2019-03-22T14:07:50.752Z,14.57
2019-03-22T14:10:34.531Z,11.77
2019-03-22T14:13:06.862Z,12.00
2019-03-22T14:15:39.202Z,11.43
2019-03-22T14:18:10.167Z,12.00
2019-03-22T14:20:42.176Z,11.33
2019-03-22T14:23:13.155Z,12.00
2019-03-22T14:25:44.169Z,13.20
2019-03-22T14:28:19.361Z,12.03
2019-03-22T14:30:56.096Z,10.50
2019-03-22T14:33:28.078Z,10.27
2019-03-22T14:35:59.104Z,9.30
2019-03-22T14:38:31.107Z,8.77
2019-03-22T14:41:04.178Z,8.97
2019-03-22T14:43:35.135Z,10.17
2019-03-22T14:46:06.172Z,7.50
2019-03-22T14:48:37.134Z,9.20
2019-03-22T14:51:08.096Z,9.43
2019-03-22T14:53:38.993Z,9.80
2019-03-22T14:56:09.967Z,8.73
2019-03-22T14:58:41.880Z,10.43
2019-03-22T15:01:16.566Z,8.90
2019-03-22T15:03:47.502Z,10.83
2019-03-22T15:06:18.420Z,8.57
2019-03-22T15:08:49.429Z,9.57
2019-03-22T15:11:20.442Z,10.53
2019-03-22T15:13:59.104Z,11.23
2019-03-22T15:16:55.157Z,9.93
2019-03-22T15:19:50.962Z,10.40
2019-03-22T15:22:44.824Z,9.73
2019-03-22T15:25:34.737Z,12.10
2019-03-22T15:28:28.042Z,12.03
2019-03-22T15:31:21.141Z,11.07
2019-03-22T15:34:26.935Z,10.80
2019-03-22T15:37:15.660Z,11.93
2019-03-22T15:40:10.776Z,11.20
2019-03-22T15:42:48.080Z,10.87
2019-03-22T15:45:20.075Z,11.80
2019-03-22T15:47:53.518Z,11.27
2019-03-22T15:50:24.455Z,12.97
2019-03-22T15:52:55.448Z,14.47
2019-03-22T15:55:26.362Z,12.00
2019-03-22T15:57:57.305Z,10.70
2019-03-22T16:00:28.250Z,11.70
2019-03-22T16:02:59.194Z,13.83
2019-03-22T16:05:30.122Z,14.60
2019-03-22T16:08:02.109Z,12.13
2019-03-22T16:10:38.878Z,14.93
2019-03-22T16:13:09.930Z,10.40
2019-03-22T16:15:44.540Z,14.80
2019-03-22T16:18:15.581Z,12.30
2019-03-22T16:20:46.554Z,11.10
2019-03-22T16:23:17.529Z,12.27
2019-03-22T16:25:50.517Z,12.67
2019-03-22T16:28:27.656Z,12.73
2019-03-22T16:30:58.736Z,10.83
2019-03-22T16:33:29.746Z,12.30
2019-03-22T16:36:00.804Z,12.13
2019-03-22T16:38:32.810Z,13.00
2019-03-22T16:41:03.853Z,12.77
2019-03-22T16:43:34.790Z,11.23
2019-03-22T16:46:05.879Z,14.70
2019-03-22T16:48:36.881Z,11.70
2019-03-22T16:51:07.917Z,14.27
2019-03-22T16:53:38.886Z,13.03
2019-03-22T16:56:11.937Z,12.77
2019-03-22T16:58:42.989Z,20.53
2019-03-22T17:01:13.938Z,11.53
2019-03-22T17:03:52.811Z,11.80
2019-03-22T17:06:24.840Z,15.03
2019-03-22T17:08:56.879Z,15.30
2019-03-22T17:11:28.853Z,14.57
2019-03-22T17:14:00.819Z,10.33
2019-03-22T17:16:36.646Z,12.60
2019-03-22T17:19:09.664Z,17.10
2019-03-22T17:21:41.691Z,17.90
2019-03-22T17:24:12.706Z,14.80
2019-03-22T17:26:44.759Z,16.90
2019-03-22T17:29:15.874Z,17.20
2019-03-22T17:31:46.885Z,14.93
2019-03-22T17:34:18.882Z,15.40
2019-03-22T17:36:50.917Z,16.07
2019-03-22T17:39:22.960Z,14.77
2019-03-22T17:41:53.970Z,15.40
2019-03-22T17:44:24.918Z,12.47
2019-03-22T17:46:55.994Z,18.07
2019-03-22T17:49:32.504Z,15.20
2019-03-22T17:52:03.565Z,16.23
2019-03-22T17:54:34.663Z,17.10
2019-03-22T17:57:05.624Z,18.80
2019-03-22T17:59:36.553Z,14.43
2019-03-22T18:02:07.625Z,14.70
2019-03-22T18:04:38.585Z,20.63
2019-03-22T18:07:09.581Z,15.83
2019-03-22T18:09:40.581Z,19.70
2019-03-22T18:12:11.559Z,19.70
2019-03-22T18:14:42.582Z,18.03
2019-03-22T18:17:18.036Z,21.60
2019-03-22T18:19:49.106Z,16.57
2019-03-22T18:22:21.178Z,18.07
2019-03-22T18:24:52.199Z,15.93
2019-03-22T18:27:26.801Z,17.60
2019-03-22T18:29:57.881Z,17.23
2019-03-22T18:32:28.908Z,20.27
2019-03-22T18:34:59.979Z,14.00
2019-03-22T18:37:36.834Z,17.83
2019-03-22T18:40:10.584Z,18.03
2019-03-22T18:42:41.665Z,18.67
2019-03-22T18:45:13.939Z,22.80
2019-03-22T18:47:48.064Z,17.57
2019-03-22T18:50:19.105Z,19.23
2019-03-22T18:52:50.206Z,19.33
2019-03-22T18:55:22.219Z,17.20
2019-03-22T18:57:53.257Z,22.30
2019-03-22T19:00:24.282Z,17.90
2019-03-22T19:02:55.230Z,21.43
2019-03-22T19:05:26.287Z,20.60
2019-03-22T19:07:57.349Z,23.10
2019-03-22T19:10:28.364Z,20.93
2019-03-22T19:13:01.347Z,23.03
2019-03-22T19:15:32.264Z,27.33
2019-03-22T19:18:03.269Z,22.43
2019-03-22T19:20:37.514Z,20.90
2019-03-22T19:23:08.596Z,21.50
2019-03-22T19:25:39.654Z,23.00
2019-03-22T19:28:10.716Z,21.87
2019-03-22T19:30:41.724Z,25.00
2019-03-22T19:33:12.758Z,23.77
2019-03-22T19:35:43.737Z,23.17
2019-03-22T19:38:14.752Z,22.80
2019-03-22T19:40:45.812Z,21.37
2019-03-22T19:43:16.838Z,22.00
2019-03-22T19:45:47.817Z,20.90
2019-03-22T19:48:18.878Z,22.73
2019-03-22T19:50:49.958Z,23.87
2019-03-22T19:53:20.995Z,20.63
2019-03-22T19:55:51.934Z,19.03
2019-03-22T19:58:22.905Z,23.10
2019-03-22T20:00:54.320Z,23.13
2019-03-22T20:03:25.385Z,22.73
2019-03-22T20:05:56.345Z,23.80
2019-03-22T20:08:27.361Z,21.10
2019-03-22T20:10:58.349Z,22.58
2019-03-22T20:13:30.395Z,23.63
2019-03-22T20:16:02.479Z,23.95
2019-03-22T20:18:33.740Z,20.30
2019-03-22T20:21:05.768Z,21.65
2019-03-22T20:23:36.807Z,28.83
2019-03-22T20:26:07.805Z,26.67
2019-03-22T20:28:41.908Z,28.40
2019-03-22T20:31:13.974Z,22.95
2019-03-22T20:33:47.013Z,26.57
2019-03-22T20:36:18.062Z,22.65
2019-03-22T20:38:50.874Z,22.70
2019-03-22T20:41:21.945Z,27.23
2019-03-22T20:43:53.753Z,24.20
2019-03-22T20:46:24.842Z,22.20
2019-03-22T20:48:55.918Z,23.53
2019-03-22T20:51:28.981Z,21.68
2019-03-22T20:54:02.031Z,26.00
2019-03-22T20:56:34.132Z,21.25
2019-03-22T20:59:06.396Z,25.25
2019-03-22T21:01:37.458Z,25.97
2019-03-22T21:04:08.545Z,20.37
2019-03-22T21:06:41.559Z,24.87
2019-03-22T21:09:12.562Z,23.35
2019-03-22T21:11:45.733Z,22.25
2019-03-22T21:14:16.783Z,20.72
2019-03-22T21:16:47.821Z,22.55
2019-03-22T21:19:18.809Z,20.23
2019-03-22T21:21:50.784Z,19.25
2019-03-22T21:24:21.787Z,19.62
2019-03-22T21:26:53.990Z,20.70
2019-03-22T21:29:25.063Z,21.33
2019-03-22T21:31:56.035Z,17.85
2019-03-22T21:34:27.090Z,19.30
2019-03-22T21:36:58.173Z,23.15
2019-03-22T21:39:31.216Z,17.67
2019-03-22T21:42:02.246Z,21.12
2019-03-22T21:44:33.286Z,20.52
2019-03-22T21:47:04.371Z,16.87
2019-03-22T21:49:35.361Z,18.57
2019-03-22T21:52:07.406Z,23.20
2019-03-22T21:54:38.386Z,20.60
2019-03-22T21:57:09.526Z,17.73
2019-03-22T21:59:40.474Z,21.23
2019-03-22T22:02:11.498Z,23.15
2019-03-22T22:04:42.458Z,18.42
2019-03-22T22:07:13.399Z,20.50
2019-03-22T22:09:44.430Z,20.82
2019-03-22T22:12:16.274Z,20.77
2019-03-22T22:14:47.242Z,19.62
2019-03-22T22:17:18.276Z,17.30
2019-03-22T22:19:49.202Z,16.25
2019-03-22T22:22:20.161Z,17.45
2019-03-22T22:24:51.184Z,16.00
2019-03-22T22:27:28.769Z,21.25
2019-03-22T22:30:00.113Z,19.77
2019-03-22T22:32:31.380Z,16.95
2019-03-22T22:35:02.427Z,18.57
2019-03-22T22:37:33.566Z,27.13
2019-03-22T22:40:08.569Z,32.65
2019-03-22T22:42:49.597Z,34.67
2019-03-22T22:45:20.749Z,32.28
2019-03-22T22:47:57.157Z,31.07
2019-03-22T22:50:28.096Z,35.63
2019-03-22T22:53:01.105Z,30.68
2019-03-22T22:55:32.094Z,25.25
2019-03-22T22:58:03.123Z,22.65
2019-03-22T23:00:34.397Z,20.72
2019-03-22T23:03:05.353Z,23.42
2019-03-22T23:05:37.485Z,22.32
2019-03-22T23:08:08.486Z,24.02
2019-03-22T23:10:40.499Z,18.65
2019-03-22T23:13:11.534Z,20.40
2019-03-22T23:15:42.565Z,24.55
2019-03-22T23:18:13.611Z,15.72
2019-03-22T23:20:44.679Z,21.37
2019-03-22T23:23:15.640Z,23.80
2019-03-22T23:25:46.631Z,20.82
2019-03-22T23:28:17.578Z,21.93
2019-03-22T23:30:48.534Z,23.80
2019-03-22T23:33:19.457Z,18.90
2019-03-22T23:35:50.454Z,21.70
2019-03-22T23:38:21.440Z,21.85
2019-03-22T23:40:52.438Z,18.80
2019-03-22T23:43:23.409Z,20.45
2019-03-22T23:45:54.366Z,18.27
2019-03-22T23:48:25.319Z,25.20
2019-03-22T23:50:56.254Z,20.52
2019-03-22T23:53:27.290Z,21.48
2019-03-22T23:55:58.262Z,21.87
2019-03-22T23:58:29.197Z,22.62
